createdAt,value
2023-02-17T00:01:38.585Z,85.76
2023-02-17T00:04:08.139Z,84.72
2023-02-17T00:06:37.038Z,85.20
2023-02-17T00:09:05.349Z,85.41
2023-02-17T00:11:34.015Z,84.91
2023-02-17T00:16:55.119Z,84.75
2023-02-17T00:19:25.401Z,84.61
2023-02-17T00:21:56.025Z,84.44
2023-02-17T00:24:25.025Z,84.96
2023-02-17T00:26:53.230Z,84.64
2023-02-17T00:29:21.794Z,84.86
2023-02-17T00:31:50.653Z,83.66
2023-02-17T00:34:19.069Z,83.80
2023-02-17T00:36:49.227Z,82.93
2023-02-17T00:39:18.530Z,83.42
2023-02-17T00:41:50.518Z,83.77
2023-02-17T00:44:21.608Z,83.24
2023-02-17T00:46:52.495Z,83.31
2023-02-17T00:49:24.816Z,83.02
2023-02-17T00:51:55.379Z,83.90
2023-02-17T00:54:23.602Z,82.94
2023-02-17T00:56:51.855Z,83.23
2023-02-17T00:59:20.106Z,82.79
2023-02-17T01:01:48.358Z,83.38
2023-02-17T01:04:16.684Z,82.99
2023-02-17T01:06:48.861Z,82.86
2023-02-17T01:09:18.609Z,82.89
2023-02-17T01:11:47.237Z,82.63
2023-02-17T01:14:16.375Z,81.99
2023-02-17T01:16:49.786Z,81.35
2023-02-17T01:19:20.499Z,81.50
2023-02-17T01:21:49.875Z,82.16
2023-02-17T01:24:19.450Z,81.26
2023-02-17T01:26:47.838Z,81.28
2023-02-17T01:29:16.270Z,81.43
2023-02-17T01:31:45.570Z,80.79
2023-02-17T01:34:14.357Z,80.75
2023-02-17T01:36:42.569Z,81.25
2023-02-17T01:39:14.448Z,81.62
2023-02-17T01:41:44.687Z,81.65
2023-02-17T01:44:17.442Z,80.88
2023-02-17T01:46:47.623Z,80.34
2023-02-17T01:49:30.787Z,80.08
2023-02-17T01:52:06.485Z,79.89
2023-02-17T01:54:40.804Z,80.45
2023-02-17T01:57:13.088Z,80.42
2023-02-17T01:59:42.512Z,80.18
2023-02-17T02:02:11.220Z,79.22
2023-02-17T02:04:43.149Z,80.08
2023-02-17T02:07:17.063Z,80.76
2023-02-17T02:09:51.490Z,80.35
2023-02-17T02:12:25.032Z,80.31
2023-02-17T02:14:54.469Z,81.35
2023-02-17T02:17:34.964Z,81.86
2023-02-17T02:20:29.711Z,82.61
2023-02-17T02:23:45.076Z,83.16
2023-02-17T02:26:54.809Z,83.08
2023-02-17T02:30:23.304Z,82.91
2023-02-17T02:33:02.338Z,82.67
2023-02-17T02:35:40.698Z,81.85
2023-02-17T02:38:29.403Z,81.42
2023-02-17T02:41:05.660Z,80.14
2023-02-17T02:43:34.261Z,80.17
2023-02-17T02:46:02.560Z,79.54
2023-02-17T02:48:32.429Z,80.00
2023-02-17T02:51:24.183Z,79.20
2023-02-17T02:54:26.278Z,79.29
2023-02-17T02:57:15.213Z,79.96
2023-02-17T02:59:56.751Z,79.38
2023-02-17T03:02:32.342Z,78.90
2023-02-17T03:05:11.366Z,77.80
2023-02-17T03:07:46.246Z,77.64
2023-02-17T03:10:16.238Z,77.04
2023-02-17T03:12:45.203Z,76.96
2023-02-17T03:15:18.373Z,76.90
2023-02-17T03:17:46.544Z,76.95
2023-02-17T03:20:16.857Z,76.43
2023-02-17T03:22:48.602Z,76.58
2023-02-17T03:25:17.676Z,76.00
2023-02-17T03:27:45.830Z,76.03
2023-02-17T03:30:15.873Z,75.88
2023-02-17T03:32:44.231Z,76.28
2023-02-17T03:35:12.584Z,76.34
2023-02-17T03:37:42.497Z,76.24
2023-02-17T03:40:15.689Z,76.26
2023-02-17T03:42:43.764Z,76.35
2023-02-17T03:45:11.898Z,76.34
2023-02-17T03:47:39.983Z,76.24
2023-02-17T03:50:09.405Z,76.50
2023-02-17T03:52:38.059Z,76.34
2023-02-17T03:55:08.109Z,76.29
2023-02-17T03:57:36.719Z,75.61
2023-02-17T04:00:06.209Z,76.19
2023-02-17T04:02:44.004Z,75.76
2023-02-17T04:05:12.942Z,75.92
2023-02-17T04:07:41.134Z,75.67
2023-02-17T04:10:11.846Z,76.01
2023-02-17T04:12:40.033Z,75.92
2023-02-17T04:15:09.345Z,75.62
2023-02-17T04:17:38.677Z,75.37
2023-02-17T04:20:09.296Z,75.62
2023-02-17T04:22:37.542Z,75.41
2023-02-17T04:25:06.239Z,75.43
2023-02-17T04:27:36.201Z,75.08
2023-02-17T04:30:04.871Z,75.21
2023-02-17T04:32:33.065Z,74.94
2023-02-17T04:35:01.319Z,74.66
2023-02-17T04:37:29.497Z,74.76
2023-02-17T04:39:57.695Z,74.76
2023-02-17T04:42:26.188Z,74.19
2023-02-17T04:44:55.718Z,74.55
2023-02-17T04:47:23.972Z,74.08
2023-02-17T04:49:52.167Z,74.55
2023-02-17T04:52:20.370Z,74.29
2023-02-17T04:54:48.570Z,74.84
2023-02-17T04:57:17.129Z,74.84
2023-02-17T04:59:45.711Z,74.64
2023-02-17T05:02:15.275Z,74.35
2023-02-17T05:04:46.009Z,74.54
2023-02-17T05:07:14.662Z,74.50
2023-02-17T05:09:42.950Z,74.13
2023-02-17T05:12:11.128Z,74.45
2023-02-17T05:14:39.395Z,74.23
2023-02-17T05:17:07.599Z,74.34
2023-02-17T05:19:37.295Z,74.25
2023-02-17T05:22:06.451Z,74.40
2023-02-17T05:24:34.653Z,74.51
2023-02-17T05:27:02.846Z,74.08
2023-02-17T05:29:31.033Z,74.66
2023-02-17T05:31:59.257Z,75.02
2023-02-17T05:34:27.520Z,75.24
2023-02-17T05:36:57.093Z,75.19
2023-02-17T05:39:25.712Z,75.30
2023-02-17T05:41:56.410Z,75.67
2023-02-17T05:44:24.812Z,75.87
2023-02-17T05:46:53.484Z,75.15
2023-02-17T05:49:21.686Z,76.17
2023-02-17T05:51:49.995Z,76.40
2023-02-17T05:54:19.516Z,77.01
2023-02-17T05:56:47.887Z,77.50
2023-02-17T05:59:16.053Z,79.18
2023-02-17T06:01:44.263Z,80.61
2023-02-17T06:04:12.560Z,80.83
2023-02-17T06:06:40.748Z,81.05
2023-02-17T06:09:08.953Z,81.85
2023-02-17T06:11:38.784Z,82.85
2023-02-17T06:14:07.384Z,83.85
2023-02-17T06:16:35.560Z,84.87
2023-02-17T06:19:05.183Z,84.11
2023-02-17T06:21:35.005Z,83.40
2023-02-17T06:24:27.001Z,83.85
2023-02-17T06:26:57.466Z,84.48
2023-02-17T06:29:25.681Z,85.50
2023-02-17T06:31:53.942Z,84.33
2023-02-17T06:34:22.189Z,83.46
2023-02-17T06:36:50.492Z,84.31
2023-02-17T06:39:19.404Z,85.36
2023-02-17T06:41:47.594Z,85.01
2023-02-17T06:44:17.173Z,86.76
2023-02-17T06:46:46.871Z,87.70
2023-02-17T06:49:15.595Z,87.67
2023-02-17T06:51:43.836Z,88.00
2023-02-17T06:54:12.087Z,87.66
2023-02-17T06:56:40.461Z,87.21
2023-02-17T06:59:08.792Z,87.05
2023-02-17T07:01:38.526Z,86.88
2023-02-17T07:04:07.702Z,86.14
2023-02-17T07:06:40.070Z,86.41
2023-02-17T07:09:08.526Z,86.24
2023-02-17T07:11:36.669Z,85.77
2023-02-17T07:14:04.772Z,85.88
2023-02-17T07:16:32.922Z,86.50
2023-02-17T07:19:02.393Z,86.63
2023-02-17T07:21:30.473Z,87.06
2023-02-17T07:23:58.551Z,87.93
2023-02-17T07:26:26.866Z,88.96
2023-02-17T07:28:54.998Z,89.74
2023-02-17T07:31:23.211Z,90.54
2023-02-17T07:33:51.430Z,90.43
2023-02-17T07:36:21.154Z,90.64
2023-02-17T07:38:49.995Z,90.52
2023-02-17T07:41:20.291Z,90.30
2023-02-17T07:43:49.351Z,90.28
2023-02-17T07:46:18.609Z,90.18
2023-02-17T07:48:47.469Z,89.91
2023-02-17T07:51:20.627Z,90.35
2023-02-17T07:53:53.290Z,89.87
2023-02-17T07:56:23.015Z,89.58
2023-02-17T07:58:51.733Z,90.01
2023-02-17T08:01:23.045Z,89.87
2023-02-17T08:03:51.962Z,90.24
2023-02-17T08:06:22.757Z,89.51
2023-02-17T08:09:11.151Z,89.77
2023-02-17T08:11:57.537Z,89.64
2023-02-17T08:14:28.426Z,89.77
2023-02-17T08:16:56.981Z,89.82
2023-02-17T08:19:27.151Z,89.77
2023-02-17T08:21:59.535Z,89.66
2023-02-17T08:24:29.860Z,89.60
2023-02-17T08:26:58.075Z,90.00
2023-02-17T08:29:26.243Z,90.10
2023-02-17T08:31:55.005Z,90.18
2023-02-17T08:34:23.317Z,90.28
2023-02-17T08:36:51.487Z,90.50
2023-02-17T08:39:19.755Z,90.80
2023-02-17T08:41:49.780Z,91.03
2023-02-17T08:44:20.911Z,91.20
2023-02-17T08:46:51.164Z,91.46
2023-02-17T08:49:22.551Z,91.72
2023-02-17T08:51:51.546Z,92.17
2023-02-17T08:54:19.945Z,92.30
2023-02-17T08:56:49.528Z,92.37
2023-02-17T08:59:18.186Z,91.96
2023-02-17T09:01:46.456Z,92.26
2023-02-17T09:04:19.356Z,91.11
2023-02-17T09:06:56.040Z,90.94
2023-02-17T09:09:27.810Z,90.96
2023-02-17T09:11:58.983Z,90.82
2023-02-17T09:14:27.678Z,90.50
2023-02-17T09:16:56.760Z,90.92
2023-02-17T09:19:25.809Z,90.27
2023-02-17T09:21:54.699Z,90.47
2023-02-17T09:24:23.341Z,89.96
2023-02-17T09:26:51.592Z,90.55
2023-02-17T09:29:21.094Z,90.03
2023-02-17T09:31:49.481Z,90.07
2023-02-17T09:34:17.726Z,90.32
2023-02-17T09:36:46.230Z,90.35
2023-02-17T09:39:14.907Z,91.58
2023-02-17T09:41:47.296Z,91.96
2023-02-17T09:44:23.790Z,91.94
2023-02-17T09:47:05.517Z,93.09
2023-02-17T09:49:41.497Z,93.32
2023-02-17T09:52:15.766Z,92.80
2023-02-17T09:54:57.778Z,92.60
2023-02-17T09:57:31.518Z,92.73
2023-02-17T10:00:08.896Z,92.94
2023-02-17T10:02:48.210Z,91.69
2023-02-17T10:05:22.911Z,92.55
2023-02-17T10:07:58.149Z,92.16
2023-02-17T10:10:32.801Z,92.18
2023-02-17T10:13:03.837Z,91.80
2023-02-17T10:15:40.866Z,91.95
2023-02-17T10:18:20.251Z,92.40
2023-02-17T10:20:53.815Z,92.10
2023-02-17T10:23:25.977Z,92.12
2023-02-17T10:26:12.013Z,92.73
2023-02-17T10:28:52.371Z,92.29
2023-02-17T10:31:39.862Z,92.37
2023-02-17T10:34:21.159Z,91.84
2023-02-17T10:36:58.798Z,92.61
2023-02-17T10:39:45.200Z,92.44
2023-02-17T10:42:22.555Z,92.26
2023-02-17T10:44:52.548Z,92.87
2023-02-17T10:47:23.502Z,92.78
2023-02-17T10:49:54.777Z,92.84
2023-02-17T10:52:37.712Z,93.04
2023-02-17T10:55:22.788Z,92.08
2023-02-17T10:58:00.521Z,92.37
2023-02-17T11:00:28.743Z,93.01
2023-02-17T11:02:58.665Z,93.03
2023-02-17T11:05:31.038Z,92.85
2023-02-17T11:08:06.077Z,93.02
2023-02-17T11:10:37.014Z,92.61
2023-02-17T11:13:29.765Z,92.72
2023-02-17T11:15:58.691Z,92.33
2023-02-17T11:18:33.088Z,93.54
2023-02-17T11:21:05.083Z,93.63
2023-02-17T11:23:33.917Z,94.63
2023-02-17T11:26:11.190Z,95.07
2023-02-17T11:28:39.787Z,96.29
2023-02-17T11:31:09.361Z,99.12
2023-02-17T11:33:41.174Z,100.00
2023-02-17T11:36:24.298Z,100.00
2023-02-17T11:38:52.886Z,100.00
2023-02-17T11:41:21.443Z,100.00
2023-02-17T11:43:55.876Z,100.00
2023-02-17T11:46:32.658Z,100.00
2023-02-17T11:49:34.825Z,100.00
2023-02-17T11:52:22.498Z,100.00
2023-02-17T11:55:07.809Z,100.00
2023-02-17T11:57:42.806Z,100.00
2023-02-17T12:00:18.853Z,100.00
2023-02-17T12:03:22.275Z,100.00
2023-02-17T12:06:03.829Z,100.00
2023-02-17T12:08:47.653Z,100.00
2023-02-17T12:11:24.557Z,100.00
2023-02-17T12:14:21.006Z,100.00
2023-02-17T12:16:57.024Z,100.00
2023-02-17T12:19:41.693Z,100.00
2023-02-17T12:22:20.751Z,100.00
2023-02-17T12:25:15.557Z,100.00
2023-02-17T12:28:00.082Z,100.00
2023-02-17T12:30:40.468Z,100.00
2023-02-17T12:33:42.029Z,100.00
2023-02-17T12:36:14.438Z,100.00
2023-02-17T12:38:47.762Z,100.00
2023-02-17T12:41:21.139Z,100.00
2023-02-17T12:43:54.253Z,100.00
2023-02-17T12:46:28.579Z,100.00
2023-02-17T12:49:01.007Z,100.00
2023-02-17T12:51:33.406Z,100.00
2023-02-17T12:54:13.900Z,100.00
2023-02-17T12:56:55.356Z,100.00
2023-02-17T12:59:33.882Z,100.00
2023-02-17T13:02:28.048Z,100.00
2023-02-17T13:05:02.255Z,100.00
2023-02-17T13:07:44.650Z,100.00
2023-02-17T13:10:33.844Z,100.00
2023-02-17T13:13:10.638Z,100.00
2023-02-17T13:15:42.956Z,100.00
2023-02-17T13:18:26.593Z,100.00
2023-02-17T13:21:01.011Z,100.00
2023-02-17T13:23:40.032Z,100.00
2023-02-17T13:26:26.351Z,100.00
2023-02-17T13:29:09.297Z,100.00
2023-02-17T13:31:49.337Z,100.00
2023-02-17T13:34:31.386Z,100.00
2023-02-17T13:37:02.328Z,100.00
2023-02-17T13:39:38.289Z,100.00
2023-02-17T13:42:36.976Z,100.00
2023-02-17T13:45:22.462Z,100.00
2023-02-17T13:47:54.148Z,100.00
2023-02-17T13:50:35.106Z,100.00
2023-02-17T13:53:07.670Z,100.00
2023-02-17T13:55:36.451Z,100.00
2023-02-17T13:58:05.969Z,100.00
2023-02-17T14:00:34.350Z,100.00
2023-02-17T14:03:15.276Z,100.00
2023-02-17T14:05:46.404Z,100.00
2023-02-17T14:08:20.023Z,100.00
2023-02-17T14:10:48.718Z,100.00
2023-02-17T14:13:18.423Z,100.00
2023-02-17T14:15:56.166Z,100.00
2023-02-17T14:18:35.499Z,100.00
2023-02-17T14:21:10.271Z,100.00
2023-02-17T14:23:45.525Z,100.00
2023-02-17T14:26:25.452Z,100.00
2023-02-17T14:28:56.641Z,100.00
2023-02-17T14:31:25.487Z,100.00
2023-02-17T14:33:55.783Z,100.00
2023-02-17T14:36:36.091Z,100.00
2023-02-17T14:39:06.735Z,100.00
2023-02-17T14:41:35.364Z,100.00
2023-02-17T14:44:06.073Z,100.00
2023-02-17T14:46:34.930Z,100.00
2023-02-17T14:49:03.497Z,100.00
2023-02-17T14:51:35.717Z,100.00
2023-02-17T14:54:05.603Z,100.00
2023-02-17T14:56:38.834Z,100.00
2023-02-17T14:59:10.030Z,100.00
2023-02-17T15:01:38.284Z,100.00
2023-02-17T15:04:07.168Z,100.00
2023-02-17T15:06:40.742Z,100.00
2023-02-17T15:09:13.395Z,100.00
2023-02-17T15:11:45.531Z,100.00
2023-02-17T15:14:17.807Z,100.00
2023-02-17T15:16:46.713Z,100.00
2023-02-17T15:19:17.964Z,100.00
2023-02-17T15:21:49.674Z,100.00
2023-02-17T15:24:20.830Z,100.00
2023-02-17T15:26:49.048Z,100.00
2023-02-17T15:29:22.199Z,100.00
2023-02-17T15:31:52.859Z,100.00
2023-02-17T15:34:24.253Z,100.00
2023-02-17T15:36:52.636Z,100.00
2023-02-17T15:39:22.279Z,100.00
2023-02-17T15:41:51.456Z,100.00
2023-02-17T15:44:23.888Z,100.00
2023-02-17T15:46:55.942Z,100.00
2023-02-17T15:49:24.454Z,100.00
2023-02-17T15:51:53.132Z,99.83
2023-02-17T15:54:22.932Z,99.31
2023-02-17T15:56:53.759Z,99.64
2023-02-17T15:59:26.825Z,99.44
2023-02-17T16:01:56.749Z,99.74
2023-02-17T16:04:24.910Z,100.00
2023-02-17T16:06:53.099Z,100.00
2023-02-17T16:09:21.667Z,99.55
2023-02-17T16:11:52.281Z,100.00
2023-02-17T16:14:31.848Z,100.00
2023-02-17T16:17:00.224Z,99.65
2023-02-17T16:19:29.031Z,99.94
2023-02-17T16:21:57.356Z,100.00
2023-02-17T16:24:25.565Z,100.00
2023-02-17T16:26:53.853Z,100.00
2023-02-17T16:29:23.927Z,100.00
2023-02-17T16:31:52.449Z,99.90
2023-02-17T16:34:22.888Z,100.00
2023-02-17T16:36:53.506Z,99.87
2023-02-17T16:39:22.799Z,100.00
2023-02-17T16:41:51.672Z,100.00
2023-02-17T16:44:24.564Z,100.00
2023-02-17T16:46:55.604Z,100.00
2023-02-17T16:49:32.567Z,100.00
2023-02-17T16:52:01.111Z,100.00
2023-02-17T16:54:30.120Z,100.00
2023-02-17T16:56:59.422Z,100.00
2023-02-17T16:59:29.312Z,100.00
2023-02-17T17:01:59.339Z,100.00
2023-02-17T17:04:27.560Z,100.00
2023-02-17T17:07:22.754Z,100.00
2023-02-17T17:10:14.321Z,100.00
2023-02-17T17:12:39.074Z,100.00
2023-02-17T17:15:10.134Z,99.75
2023-02-17T17:17:43.780Z,99.31
2023-02-17T17:20:17.204Z,99.42
2023-02-17T17:22:46.711Z,99.03
2023-02-17T17:25:15.378Z,99.77
2023-02-17T17:27:45.944Z,98.98
2023-02-17T17:30:23.252Z,98.81
2023-02-17T17:32:51.801Z,99.51
2023-02-17T17:35:20.942Z,99.37
2023-02-17T17:37:49.477Z,99.03
2023-02-17T17:40:21.056Z,99.78
2023-02-17T17:42:49.466Z,99.50
2023-02-17T17:45:19.912Z,99.23
2023-02-17T17:47:48.181Z,100.00
2023-02-17T17:50:19.553Z,99.16
2023-02-17T17:52:48.836Z,100.00
2023-02-17T17:55:17.590Z,99.81
2023-02-17T17:57:45.837Z,100.00
2023-02-17T18:00:19.779Z,99.99
2023-02-17T18:02:48.008Z,100.00
2023-02-17T18:05:16.597Z,100.00
2023-02-17T18:07:48.150Z,100.00
2023-02-17T18:10:16.653Z,100.00
2023-02-17T18:12:46.705Z,100.00
2023-02-17T18:15:15.837Z,100.00
2023-02-17T18:17:46.465Z,100.00
2023-02-17T18:20:15.084Z,100.00
2023-02-17T18:22:43.201Z,100.00
2023-02-17T18:25:12.137Z,100.00
2023-02-17T18:27:42.696Z,100.00
2023-02-17T18:30:12.623Z,100.00
2023-02-17T18:32:41.251Z,100.00
2023-02-17T18:35:11.244Z,100.00
2023-02-17T18:37:40.987Z,100.00
2023-02-17T18:40:12.529Z,100.00
2023-02-17T18:42:42.401Z,100.00
2023-02-17T18:45:11.828Z,100.00
2023-02-17T18:47:40.005Z,100.00
2023-02-17T18:50:11.996Z,100.00
2023-02-17T18:52:40.622Z,100.00
2023-02-17T18:55:09.638Z,100.00
2023-02-17T18:57:38.178Z,100.00
2023-02-17T19:00:10.722Z,100.00
2023-02-17T19:02:39.976Z,100.00
2023-02-17T19:05:15.111Z,100.00
2023-02-17T19:07:43.546Z,100.00
2023-02-17T19:10:12.866Z,100.00
2023-02-17T19:12:41.142Z,100.00
2023-02-17T19:15:09.697Z,100.00
2023-02-17T19:17:37.904Z,100.00
2023-02-17T19:20:07.491Z,100.00
2023-02-17T19:22:38.202Z,100.00
2023-02-17T19:25:08.229Z,100.00
2023-02-17T19:27:39.747Z,100.00
2023-02-17T19:30:09.628Z,100.00
2023-02-17T19:32:37.971Z,100.00
2023-02-17T19:35:06.919Z,100.00
2023-02-17T19:37:37.375Z,100.00
2023-02-17T19:40:07.144Z,100.00
2023-02-17T19:42:35.649Z,100.00
2023-02-17T19:45:03.932Z,100.00
2023-02-17T19:47:32.117Z,100.00
2023-02-17T19:50:00.332Z,100.00
2023-02-17T19:52:28.993Z,100.00
2023-02-17T19:54:59.677Z,100.00
2023-02-17T19:57:27.845Z,100.00
2023-02-17T19:59:56.574Z,100.00
2023-02-17T20:02:24.810Z,100.00
2023-02-17T20:04:53.012Z,100.00
2023-02-17T20:07:21.251Z,100.00
2023-02-17T20:09:49.424Z,100.00
2023-02-17T20:12:19.060Z,100.00
2023-02-17T20:14:47.265Z,100.00
2023-02-17T20:17:16.810Z,100.00
2023-02-17T20:19:45.062Z,100.00
2023-02-17T20:22:13.348Z,100.00
2023-02-17T20:24:42.605Z,100.00
2023-02-17T20:27:11.505Z,100.00
2023-02-17T20:29:41.158Z,100.00
2023-02-17T20:32:10.071Z,99.96
2023-02-17T20:34:40.484Z,100.00
2023-02-17T20:37:09.625Z,99.57
2023-02-17T20:39:40.157Z,99.21
2023-02-17T20:42:08.519Z,100.00
2023-02-17T20:44:37.039Z,99.52
2023-02-17T20:47:06.653Z,100.00
2023-02-17T20:49:36.253Z,100.00
2023-02-17T20:52:06.545Z,100.00
2023-02-17T20:54:35.284Z,100.00
2023-02-17T20:57:04.863Z,100.00
2023-02-17T20:59:33.014Z,100.00
2023-02-17T21:02:01.301Z,100.00
2023-02-17T21:04:32.895Z,100.00
2023-02-17T21:07:02.861Z,100.00
2023-02-17T21:09:31.170Z,100.00
2023-02-17T21:11:59.435Z,100.00
2023-02-17T21:14:27.650Z,100.00
2023-02-17T21:16:55.820Z,100.00
2023-02-17T21:19:24.234Z,100.00
2023-02-17T21:21:53.747Z,100.00
2023-02-17T21:24:22.223Z,100.00
2023-02-17T21:26:50.415Z,100.00
2023-02-17T21:29:18.646Z,100.00
2023-02-17T21:31:46.891Z,100.00
2023-02-17T21:34:15.177Z,100.00
2023-02-17T21:36:43.358Z,100.00
2023-02-17T21:39:13.121Z,100.00
2023-02-17T21:41:43.026Z,100.00
2023-02-17T21:44:31.280Z,100.00
2023-02-17T21:46:59.742Z,100.00
2023-02-17T21:49:28.533Z,100.00
2023-02-17T21:51:56.743Z,100.00
2023-02-17T21:54:26.274Z,100.00
2023-02-17T21:56:54.474Z,100.00
2023-02-17T21:59:22.656Z,100.00
2023-02-17T22:01:51.930Z,100.00
2023-02-17T22:04:20.278Z,100.00
2023-02-17T22:06:48.563Z,100.00
2023-02-17T22:09:18.459Z,100.00
2023-02-17T22:11:49.562Z,100.00
2023-02-17T22:14:21.266Z,100.00
2023-02-17T22:16:50.441Z,100.00
2023-02-17T22:19:21.701Z,100.00
2023-02-17T22:21:54.389Z,100.00
2023-02-17T22:24:22.777Z,100.00
2023-02-17T22:26:52.320Z,100.00
2023-02-17T22:29:20.517Z,100.00
2023-02-17T22:31:50.307Z,100.00
2023-02-17T22:34:18.692Z,100.00
2023-02-17T22:36:47.304Z,100.00
2023-02-17T22:39:15.623Z,100.00
2023-02-17T22:41:43.878Z,100.00
2023-02-17T22:44:13.564Z,100.00
2023-02-17T22:46:41.872Z,100.00
2023-02-17T22:49:10.137Z,100.00
2023-02-17T22:51:40.668Z,100.00
2023-02-17T22:54:09.965Z,100.00
2023-02-17T22:56:38.506Z,100.00
2023-02-17T22:59:06.805Z,100.00
2023-02-17T23:01:37.706Z,100.00
2023-02-17T23:04:08.087Z,100.00
2023-02-17T23:06:38.800Z,100.00
2023-02-17T23:09:10.146Z,100.00
2023-02-17T23:11:54.238Z,100.00
2023-02-17T23:14:26.580Z,100.00
2023-02-17T23:16:59.282Z,100.00
2023-02-17T23:19:28.654Z,100.00
2023-02-17T23:21:59.785Z,100.00
2023-02-17T23:24:29.139Z,100.00
2023-02-17T23:27:00.268Z,100.00
2023-02-17T23:29:30.666Z,100.00
2023-02-17T23:32:00.609Z,100.00
2023-02-17T23:34:29.724Z,100.00
2023-02-17T23:36:58.096Z,100.00
2023-02-17T23:39:26.415Z,100.00
2023-02-17T23:41:54.704Z,100.00
2023-02-17T23:44:22.872Z,100.00
2023-02-17T23:46:51.132Z,100.00
2023-02-17T23:49:20.656Z,100.00
2023-02-17T23:51:48.852Z,100.00
2023-02-17T23:54:17.197Z,100.00
2023-02-17T23:56:45.410Z,100.00
2023-02-17T23:59:14.219Z,100.00
